Time;durP1;ratioP1;P1;durP2;ratioP2;P2;SDS_P1;SDS_P2;PMS_P1;PMS_P2;Temp;Humidity;BMP_temperature;BMP_pressure;BME280_temperature;BME280_humidity;BME280_pressure;Samples;Min_cycle;Max_cycle;Signal;HPM_P1;HPM_P2
2023/06/14 00:01:02;;;;;;;5.30;4.80;;;;;;;18.17;64.76;101275.44;4991259;28;20036;-61
2023/06/14 00:03:28;;;;;;;5.03;4.53;;;;;;;18.09;65.61;101277.09;4991131;28;20029;-61
2023/06/14 00:05:53;;;;;;;5.82;4.53;;;;;;;18.04;66.57;101289.28;4991287;28;20030;-61
2023/06/14 00:08:21;;;;;;;5.55;5.05;;;;;;;18.03;66.06;101280.53;4991174;28;20026;-61
2023/06/14 00:10:46;;;;;;;6.10;4.60;;;;;;;17.98;66.88;101277.91;4991282;28;20036;-62
2023/06/14 00:13:11;;;;;;;5.38;4.88;;;;;;;17.92;65.39;101277.81;4990236;28;20026;-61
2023/06/14 00:15:38;;;;;;;5.45;4.95;;;;;;;17.89;64.80;101275.19;4991228;28;20076;-61
2023/06/14 00:18:04;;;;;;;7.57;4.57;;;;;;;17.84;66.79;101282.13;4990475;28;20105;-61
2023/06/14 00:20:32;;;;;;;5.60;5.10;;;;;;;17.80;66.61;101273.38;4990971;28;20096;-61
2023/06/14 00:22:58;;;;;;;5.75;4.95;;;;;;;17.76;66.53;101284.69;4989948;28;20033;-61
2023/06/14 00:25:27;;;;;;;6.32;4.75;;;;;;;17.74;66.43;101287.28;4990449;28;20036;-59
2023/06/14 00:27:53;;;;;;;5.75;5.15;;;;;;;17.71;65.71;101294.25;4990761;28;20033;-61
2023/06/14 00:30:18;;;;;;;7.60;5.38;;;;;;;17.68;66.14;101286.38;4990879;28;20026;-61
2023/06/14 00:32:44;;;;;;;6.80;4.85;;;;;;;17.67;64.83;101290.72;4990296;28;20474;-60
2023/06/14 00:35:10;;;;;;;6.18;4.90;;;;;;;17.66;65.67;101288.97;4990073;28;20081;-61
2023/06/14 00:37:35;;;;;;;8.48;4.90;;;;;;;17.65;65.97;101292.44;4989653;28;20026;-61
2023/06/14 00:40:01;;;;;;;5.32;4.82;;;;;;;17.61;64.61;101291.53;4990413;28;20493;-61
2023/06/14 00:42:27;;;;;;;6.60;4.90;;;;;;;17.58;65.23;101285.38;4990383;28;20520;-60
2023/06/14 00:44:53;;;;;;;5.15;4.65;;;;;;;17.57;64.69;101283.63;4988921;28;20238;-61
2023/06/14 00:47:19;;;;;;;4.88;4.45;;;;;;;17.54;65.56;101299.34;4990184;28;20065;-61
2023/06/14 00:49:47;;;;;;;5.55;4.70;;;;;;;17.50;65.27;101293.19;4990280;28;20030;-61
2023/06/14 00:52:14;;;;;;;5.22;4.65;;;;;;;17.46;65.31;101297.50;4990148;28;20367;-61
2023/06/14 00:54:41;;;;;;;5.00;4.50;;;;;;;17.41;66.12;101291.34;4990331;28;20204;-60
2023/06/14 00:57:07;;;;;;;4.85;4.43;;;;;;;17.35;67.98;101294.78;4989246;28;20283;-61
2023/06/14 00:59:32;;;;;;;6.32;4.53;;;;;;;17.32;65.71;101288.63;4990032;28;20358;-61
2023/06/14 01:01:58;;;;;;;5.40;4.13;;;;;;;17.28;66.70;101291.22;4990713;28;20023;-61
2023/06/14 01:04:23;;;;;;;5.47;4.45;;;;;;;17.25;66.85;101292.91;4990320;28;20019;-60
2023/06/14 01:07:03;;;;;;;5.90;4.78;;;;;;;17.24;66.47;101288.53;4989915;28;20046;-61
2023/06/14 01:09:45;;;;;;;5.47;4.97;;;;;;;17.25;64.83;101293.78;4990086;28;20126;-61
2023/06/14 01:12:15;;;;;;;5.68;4.55;;;;;;;17.22;64.69;101298.09;4989416;28;20046;-61
2023/06/14 01:14:41;;;;;;;6.45;4.18;;;;;;;17.19;65.51;101298.06;4989635;28;20026;-61
2023/06/14 01:17:15;;;;;;;4.85;4.05;;;;;;;17.12;63.64;101291.88;4988604;28;20085;-62
2023/06/14 01:19:42;;;;;;;4.25;3.85;;;;;;;17.09;62.06;101291.81;4989612;28;20050;-60
2023/06/14 01:22:08;;;;;;;5.85;4.43;;;;;;;17.07;61.30;101298.78;4989627;28;20026;-61
2023/06/14 01:24:34;;;;;;;5.25;4.07;;;;;;;17.04;61.53;101299.59;4989208;28;20492;-61
2023/06/14 01:27:02;;;;;;;4.55;3.85;;;;;;;17.00;63.80;101293.44;4989664;28;20030;-60
2023/06/14 01:29:32;;;;;;;4.30;3.90;;;;;;;16.96;64.14;101293.41;4988946;28;20030;-61
2023/06/14 01:31:58;;;;;;;4.18;3.80;;;;;;;16.95;63.15;101304.72;4989647;28;20045;-60
2023/06/14 01:34:24;;;;;;;4.32;3.92;;;;;;;16.91;62.40;101302.06;4988847;28;20033;-60
2023/06/14 01:36:50;;;;;;;6.10;3.58;;;;;;;16.86;62.42;101298.50;4988754;28;20376;-61
2023/06/14 01:39:15;;;;;;;5.65;3.70;;;;;;;16.83;62.70;101297.59;4988799;28;20030;-59
2023/06/14 01:41:43;;;;;;;4.57;4.03;;;;;;;16.77;62.86;101296.66;4989436;28;20033;-61
2023/06/14 01:44:09;;;;;;;5.10;3.67;;;;;;;16.73;63.72;101300.06;4989230;28;20513;-61
2023/06/14 01:46:35;;;;;;;5.82;4.07;;;;;;;16.72;62.87;101293.09;4989313;28;20026;-60
2023/06/14 01:49:02;;;;;;;4.97;3.97;;;;;;;16.68;64.47;101296.53;4988904;28;20158;-60
2023/06/14 01:51:27;;;;;;;4.60;3.45;;;;;;;16.65;64.25;101296.50;4989256;28;20395;-60
2023/06/14 01:53:52;;;;;;;7.65;3.95;;;;;;;16.64;61.54;101299.97;4988777;28;20019;-61
2023/06/14 01:56:18;;;;;;;4.32;3.92;;;;;;;16.64;62.32;101294.75;4988443;28;20096;-60
2023/06/14 01:58:43;;;;;;;4.28;3.88;;;;;;;16.61;62.57;101294.69;4988988;28;20026;-60
2023/06/14 02:01:08;;;;;;;7.05;4.00;;;;;;;16.55;62.54;101290.22;4989038;28;20541;-61
2023/06/14 02:03:34;;;;;;;4.22;3.83;;;;;;;16.50;62.22;101292.78;4988934;28;20081;-60
2023/06/14 02:05:59;;;;;;;4.70;4.25;;;;;;;16.50;61.08;101298.03;4989410;28;20133;-61
2023/06/14 02:08:24;;;;;;;5.45;4.07;;;;;;;16.52;60.76;101295.44;4988371;28;20026;-61
2023/06/14 02:10:50;;;;;;;6.00;4.88;;;;;;;16.52;59.88;101296.31;4989162;28;20026;-61
2023/06/14 02:13:15;;;;;;;5.18;4.25;;;;;;;16.53;59.62;101287.59;4988614;28;20073;-61
2023/06/14 02:15:43;;;;;;;7.28;4.20;;;;;;;16.53;60.78;101292.84;4988244;28;20141;-61
2023/06/14 02:18:09;;;;;;;7.15;3.65;;;;;;;16.47;60.87;101298.00;4988827;28;20481;-59
2023/06/14 02:20:35;;;;;;;5.03;3.85;;;;;;;16.43;60.83;101289.22;4988960;28;20050;-60
2023/06/14 02:23:00;;;;;;;6.88;4.38;;;;;;;16.39;61.25;101295.25;4988888;28;20076;-61
2023/06/14 02:25:27;;;;;;;5.20;3.70;;;;;;;16.36;61.18;101289.97;4988529;28;20497;-60
2023/06/14 02:27:53;;;;;;;4.88;4.10;;;;;;;16.33;61.51;101290.81;4988411;28;20471;-61
2023/06/14 02:30:18;;;;;;;5.63;3.80;;;;;;;16.27;62.55;101295.06;4988256;28;20037;-60
2023/06/14 02:32:43;;;;;;;3.67;3.38;;;;;;;16.21;63.92;101295.84;4988654;28;20054;-61
2023/06/14 02:35:09;;;;;;;4.20;3.78;;;;;;;16.18;63.08;101298.41;4988808;28;20097;-61
2023/06/14 02:37:35;;;;;;;5.93;4.35;;;;;;;16.12;63.51;101299.19;4988404;28;20038;-60
2023/06/14 02:40:00;;;;;;;6.22;4.10;;;;;;;16.06;63.87;101299.97;4988349;28;20762;-61
2023/06/14 02:42:26;;;;;;;4.75;4.32;;;;;;;16.06;62.54;101306.94;4988396;28;20018;-60
2023/06/14 02:44:51;;;;;;;5.43;3.72;;;;;;;16.06;62.95;101307.81;4988822;28;20022;-60
2023/06/14 02:47:18;;;;;;;4.57;4.18;;;;;;;16.05;61.55;101313.00;4988232;28;20026;-61
2023/06/14 02:49:43;;;;;;;5.10;4.47;;;;;;;16.05;61.22;101305.16;4988180;28;20109;-61
2023/06/14 02:52:09;;;;;;;7.00;3.92;;;;;;;16.04;63.27;101304.31;4988444;28;20176;-60
2023/06/14 02:54:34;;;;;;;4.63;3.78;;;;;;;16.01;62.37;101306.84;4988505;28;20026;-60
2023/06/14 02:56:59;;;;;;;4.80;4.28;;;;;;;15.98;62.57;101309.38;4988249;28;20042;-60
2023/06/14 02:59:26;;;;;;;6.95;4.15;;;;;;;15.97;63.93;101308.50;4988026;28;20028;-60
2023/06/14 03:01:51;;;;;;;5.75;4.00;;;;;;;15.94;63.76;101307.56;4988205;28;20031;-61
2023/06/14 03:04:16;;;;;;;4.60;4.20;;;;;;;15.92;64.73;101309.31;4988505;28;20041;-60
2023/06/14 03:06:44;;;;;;;4.05;3.63;;;;;;;15.90;65.45;101308.38;4987439;28;20109;-61
2023/06/14 03:09:09;;;;;;;4.68;3.78;;;;;;;15.85;67.32;101314.41;4990536;28;20034;-61
2023/06/14 03:11:35;;;;;;;4.25;3.63;;;;;;;15.79;67.28;101314.31;4989843;28;20029;-61
2023/06/14 03:14:03;;;;;;;10.88;4.07;;;;;;;15.76;68.07;101319.47;4990469;28;20042;-61
2023/06/14 03:16:29;;;;;;;8.68;3.70;;;;;;;15.71;65.84;101321.09;4990153;28;20150;-60
2023/06/14 03:18:55;;;;;;;4.40;3.85;;;;;;;15.68;67.42;101321.94;4989901;28;20031;-61
2023/06/14 03:21:21;;;;;;;8.25;3.78;;;;;;;15.65;67.91;101321.88;4990021;28;20138;-60
2023/06/14 03:23:47;;;;;;;3.38;3.08;;;;;;;15.63;68.60;101318.38;4989563;28;20044;-61
2023/06/14 03:26:13;;;;;;;4.28;3.25;;;;;;;15.59;68.33;101324.38;4990836;28;20027;-61
2023/06/14 03:28:39;;;;;;;3.72;3.42;;;;;;;15.54;67.78;101329.50;4991588;28;20037;-61
2023/06/14 03:31:04;;;;;;;7.05;3.80;;;;;;;15.51;67.58;101332.06;4991725;28;20018;-59
2023/06/14 03:33:30;;;;;;;4.65;3.60;;;;;;;15.47;68.26;101338.09;4991671;28;20113;-60
2023/06/14 03:35:56;;;;;;;4.03;3.63;;;;;;;15.43;69.07;101333.66;4991411;28;20483;-61
2023/06/14 03:38:21;;;;;;;5.28;3.40;;;;;;;15.39;68.65;101334.44;4991638;28;20037;-61
2023/06/14 03:40:46;;;;;;;4.82;3.33;;;;;;;15.36;68.70;101333.50;4991362;28;20026;-61
2023/06/14 03:43:12;;;;;;;8.05;3.70;;;;;;;15.34;68.99;101343.03;4991979;28;20030;-61
2023/06/14 03:45:37;;;;;;;7.85;4.03;;;;;;;15.32;69.95;101342.16;4991436;28;20490;-60
2023/06/14 03:48:03;;;;;;;5.90;3.92;;;;;;;15.29;67.88;101343.81;4991527;28;20092;-61
2023/06/14 03:50:28;;;;;;;6.97;4.05;;;;;;;15.34;66.05;101337.81;4991351;28;20038;-61
2023/06/14 03:52:54;;;;;;;7.13;4.28;;;;;;;15.35;68.41;101344.81;4991471;28;20441;-59
2023/06/14 03:55:19;;;;;;;6.78;3.42;;;;;;;15.38;67.38;101340.53;4991216;28;20053;-61
2023/06/14 03:57:44;;;;;;;8.45;4.32;;;;;;;15.43;66.72;101346.72;4991297;28;20049;-60
2023/06/14 04:00:11;;;;;;;6.00;3.88;;;;;;;15.45;65.45;101340.66;4991043;28;20049;-59
2023/06/14 04:02:36;;;;;;;5.63;4.03;;;;;;;15.48;66.06;101337.22;4991400;28;20026;-61
2023/06/14 04:05:03;;;;;;;5.80;4.18;;;;;;;15.48;66.70;101345.97;4990921;28;20025;-60
2023/06/14 04:07:28;;;;;;;5.90;4.43;;;;;;;15.46;67.90;101350.25;4991165;28;20030;-61
2023/06/14 04:09:54;;;;;;;4.07;3.60;;;;;;;15.47;67.34;101351.16;4991286;28;20025;-60
2023/06/14 04:12:20;;;;;;;5.68;3.92;;;;;;;15.48;67.92;101355.50;4991450;28;20306;-61
2023/06/14 04:14:45;;;;;;;8.23;4.72;;;;;;;15.50;67.86;101353.81;4990312;28;20037;-61
2023/06/14 04:17:11;;;;;;;5.78;4.22;;;;;;;15.55;66.46;101357.41;4991116;28;20486;-61
2023/06/14 04:19:36;;;;;;;5.32;4.07;;;;;;;15.60;65.75;101357.47;4990811;28;20045;-60
2023/06/14 04:22:02;;;;;;;6.32;4.57;;;;;;;15.65;66.09;101357.59;4991026;28;20088;-60
2023/06/14 04:24:31;;;;;;;5.78;4.25;;;;;;;15.69;66.23;101359.38;4990907;28;20417;-60
2023/06/14 04:26:58;;;;;;;6.68;4.10;;;;;;;15.71;64.71;101362.91;4990880;28;20021;-61
2023/06/14 04:29:24;;;;;;;8.43;4.18;;;;;;;15.72;66.10;101369.91;4990536;28;20462;-61
2023/06/14 04:31:49;;;;;;;5.80;4.45;;;;;;;15.71;65.78;101357.69;4988759;28;20109;-60
2023/06/14 04:34:17;;;;;;;4.40;4.00;;;;;;;15.72;68.15;101362.06;4990290;28;20105;-61
2023/06/14 04:36:48;;;;;;;4.78;4.22;;;;;;;15.75;65.95;101363.84;4990307;28;20047;-61
2023/06/14 04:39:18;;;;;;;5.22;3.90;;;;;;;15.79;65.93;101361.34;4989849;28;20026;-60
2023/06/14 04:41:44;;;;;;;5.63;4.43;;;;;;;15.84;64.56;101358.81;4990146;28;20034;-61
2023/06/14 04:44:09;;;;;;;6.78;4.13;;;;;;;15.90;64.78;101368.50;4990298;28;20030;-61
2023/06/14 04:46:44;;;;;;;5.35;3.72;;;;;;;15.94;64.18;101372.91;4990488;28;20371;-60
2023/06/14 04:49:09;;;;;;;6.03;4.13;;;;;;;16.00;67.09;101367.81;4989915;28;20022;-61
2023/06/14 04:51:34;;;;;;;5.70;3.70;;;;;;;16.03;65.01;101364.41;4989362;28;20034;-62
2023/06/14 04:54:01;;;;;;;8.88;4.10;;;;;;;16.08;64.45;101368.84;4988911;28;20522;-61
2023/06/14 04:56:26;;;;;;;4.97;4.32;;;;;;;16.14;64.40;101375.03;4988858;28;20379;-61
2023/06/14 04:58:52;;;;;;;6.68;4.55;;;;;;;16.18;63.91;101375.13;4989258;28;20026;-60
2023/06/14 05:01:18;;;;;;;5.38;4.03;;;;;;;16.21;63.49;101384.72;4989922;28;20478;-61
2023/06/14 05:03:44;;;;;;;7.95;4.55;;;;;;;16.25;63.21;101383.94;4989035;28;20022;-60
2023/06/14 05:06:11;;;;;;;4.63;3.67;;;;;;;16.32;63.66;101379.69;4989634;28;20490;-60
2023/06/14 05:08:36;;;;;;;6.25;4.13;;;;;;;16.37;63.39;101377.16;4989297;28;20178;-61
2023/06/14 05:11:01;;;;;;;6.57;4.15;;;;;;;16.41;62.27;101377.22;4989839;28;20034;-61
2023/06/14 05:13:27;;;;;;;8.43;4.55;;;;;;;16.47;62.96;101373.84;4989618;28;20049;-61
2023/06/14 05:15:53;;;;;;;6.93;4.13;;;;;;;16.55;62.81;101384.41;4988974;28;20065;-61
2023/06/14 05:18:19;;;;;;;4.63;3.85;;;;;;;16.58;62.01;101380.97;4989319;28;20054;-61
2023/06/14 05:20:45;;;;;;;7.38;4.03;;;;;;;16.63;62.17;101389.75;4989566;28;20109;-59
2023/06/14 05:23:14;;;;;;;4.35;3.65;;;;;;;16.67;62.33;101386.34;4989062;28;20026;-61
2023/06/14 05:25:44;;;;;;;4.95;4.40;;;;;;;16.71;62.67;101390.78;4989802;28;20022;-61
2023/06/14 05:28:10;;;;;;;4.20;3.80;;;;;;;16.80;62.07;101390.03;4989813;28;20022;-61
2023/06/14 05:30:38;;;;;;;9.88;4.70;;;;;;;16.90;62.38;101389.31;4988464;28;20101;-61
2023/06/14 05:33:03;;;;;;;6.85;3.90;;;;;;;16.98;61.39;101392.03;4989071;28;20019;-61
2023/06/14 05:35:29;;;;;;;5.93;3.70;;;;;;;17.04;61.46;101384.25;4989027;28;20402;-61
2023/06/14 05:37:54;;;;;;;6.32;3.47;;;;;;;17.13;61.40;101385.28;4989202;28;20093;-61
2023/06/14 05:40:20;;;;;;;6.97;3.55;;;;;;;17.23;61.27;101387.19;4989562;28;20113;-61
2023/06/14 05:42:46;;;;;;;4.57;3.20;;;;;;;17.34;61.76;101397.75;4988947;28;20087;-60
2023/06/14 05:45:11;;;;;;;7.00;3.47;;;;;;;17.44;61.08;101398.78;4989404;28;20046;-61
2023/06/14 05:47:36;;;;;;;4.30;3.35;;;;;;;17.55;60.34;101405.88;4989497;28;20034;-61
2023/06/14 05:50:02;;;;;;;5.07;3.78;;;;;;;17.66;61.29;101408.63;4989114;28;20073;-61
2023/06/14 05:52:27;;;;;;;6.30;3.33;;;;;;;17.75;61.30;101408.72;4988782;28;20110;-61
2023/06/14 05:54:53;;;;;;;5.13;3.38;;;;;;;17.85;60.73;101417.56;4989077;28;20026;-62
2023/06/14 05:57:18;;;;;;;4.55;3.97;;;;;;;17.92;58.87;101411.53;4988061;28;20417;-61
2023/06/14 05:59:44;;;;;;;4.13;3.53;;;;;;;18.02;58.41;101411.63;4989153;28;20057;-61
2023/06/14 06:02:09;;;;;;;6.30;3.63;;;;;;;18.10;59.02;101415.19;4988698;28;20022;-61
2023/06/14 06:04:34;;;;;;;5.53;3.83;;;;;;;18.18;58.53;101421.44;4988684;28;20049;-61
2023/06/14 06:07:00;;;;;;;5.78;3.67;;;;;;;18.27;58.53;101417.13;4989282;28;20014;-61
2023/06/14 06:09:25;;;;;;;5.78;3.50;;;;;;;18.38;58.23;101419.84;4988533;28;20474;-61
2023/06/14 06:11:51;;;;;;;4.00;3.55;;;;;;;18.45;57.32;101417.31;4988643;28;20026;-62
2023/06/14 06:14:16;;;;;;;4.63;3.15;;;;;;;18.56;57.36;101416.50;4989425;28;20022;-61
2023/06/14 06:16:41;;;;;;;5.28;3.00;;;;;;;18.63;56.59;101420.94;4988667;28;20106;-61
2023/06/14 06:19:07;;;;;;;6.65;3.25;;;;;;;18.73;56.11;101421.88;4988616;28;20030;-61
2023/06/14 06:21:32;;;;;;;5.60;3.88;;;;;;;18.84;56.17;101422.84;4989010;28;20037;-62
2023/06/14 06:23:57;;;;;;;7.80;3.50;;;;;;;18.94;56.24;101421.13;4988293;28;20026;-60
2023/06/14 06:26:22;;;;;;;4.82;2.90;;;;;;;19.10;56.29;101430.88;4988446;28;20022;-62
2023/06/14 06:28:48;;;;;;;8.18;3.10;;;;;;;19.25;55.85;101430.13;4988701;28;20026;-62
2023/06/14 06:31:13;;;;;;;3.38;2.72;;;;;;;19.37;55.31;101440.69;4988845;28;20048;-62
2023/06/14 06:33:39;;;;;;;4.53;3.15;;;;;;;19.49;55.33;101444.22;4988821;28;20030;-62
2023/06/14 06:36:05;;;;;;;6.95;3.40;;;;;;;19.62;53.21;101447.78;4988413;28;20125;-62
2023/06/14 06:38:30;;;;;;;4.75;3.45;;;;;;;19.73;53.08;101439.94;4986690;28;20511;-61
2023/06/14 06:40:56;;;;;;;5.65;2.90;;;;;;;19.84;52.36;101450.50;4986823;28;20069;-60
2023/06/14 06:43:21;;;;;;;5.80;3.70;;;;;;;19.92;51.47;101451.38;4988930;28;20057;-61
2023/06/14 06:45:47;;;;;;;5.80;2.85;;;;;;;20.00;51.60;101460.16;4990485;28;20026;-61
2023/06/14 06:48:12;;;;;;;5.82;3.20;;;;;;;20.13;52.36;101453.19;4990837;28;20474;-62
2023/06/14 06:50:38;;;;;;;7.10;3.00;;;;;;;20.30;52.51;101460.25;4990761;28;20073;-62
2023/06/14 06:53:03;;;;;;;4.05;3.40;;;;;;;20.40;50.42;101462.00;4990729;28;20033;-61
2023/06/14 06:55:29;;;;;;;7.28;3.05;;;;;;;20.50;50.43;101469.91;4992461;28;20109;-62
2023/06/14 06:57:54;;;;;;;4.13;3.03;;;;;;;20.54;50.19;101466.41;4993741;28;20190;-61
2023/06/14 07:00:21;;;;;;;4.75;2.95;;;;;;;20.65;49.71;101466.41;4993409;28;20463;-61
2023/06/14 07:02:47;;;;;;;4.03;2.85;;;;;;;20.79;50.98;101473.41;4993124;28;20038;-62
2023/06/14 07:05:12;;;;;;;5.50;3.00;;;;;;;20.93;51.54;101473.41;4992267;28;20022;-63
2023/06/14 07:07:38;;;;;;;4.93;3.10;;;;;;;21.03;48.91;101472.53;4993498;28;20027;-63
2023/06/14 07:10:04;;;;;;;9.15;3.80;;;;;;;21.08;47.19;101477.81;4992969;28;20034;-62
2023/06/14 07:12:33;;;;;;;5.35;3.08;;;;;;;21.14;48.06;101479.56;4993267;28;20026;-62
2023/06/14 07:15:00;;;;;;;5.43;2.95;;;;;;;21.20;48.22;101477.78;4990909;28;20018;-63
2023/06/14 07:17:25;;;;;;;6.13;2.90;;;;;;;21.29;48.14;101474.25;4991898;28;20360;-62
2023/06/14 07:19:51;;;;;;;3.75;2.63;;;;;;;21.38;47.01;101472.44;4991880;28;20029;-63
2023/06/14 07:22:17;;;;;;;3.72;2.80;;;;;;;21.52;46.90;101475.03;4991831;28;20022;-61
2023/06/14 07:24:42;;;;;;;3.10;2.63;;;;;;;21.72;47.43;101482.84;4989442;28;20565;-63
2023/06/14 07:27:08;;;;;;;2.80;2.30;;;;;;;21.85;47.17;101483.72;4990574;28;20022;-62
2023/06/14 07:29:33;;;;;;;4.70;2.63;;;;;;;22.00;47.14;101482.75;4990234;28;20026;-63
2023/06/14 07:31:58;;;;;;;7.50;2.72;;;;;;;22.10;46.35;101490.59;4990649;28;20019;-61
2023/06/14 07:34:24;;;;;;;5.38;3.10;;;;;;;22.19;46.50;101493.19;4990567;28;20052;-62
2023/06/14 07:36:49;;;;;;;3.47;2.25;;;;;;;22.35;46.51;101501.00;4988785;28;20042;-63
2023/06/14 07:39:15;;;;;;;4.28;2.53;;;;;;;22.47;45.77;101498.28;4989745;28;20037;-63
2023/06/14 07:41:40;;;;;;;5.22;3.25;;;;;;;22.66;45.94;101495.53;4990425;28;20025;-63
2023/06/14 07:44:05;;;;;;;6.55;3.38;;;;;;;22.78;44.91;101497.19;4990091;28;20475;-62
2023/06/14 07:46:31;;;;;;;3.97;2.40;;;;;;;22.93;44.64;101506.75;4990492;28;20022;-62
2023/06/14 07:48:56;;;;;;;4.55;3.03;;;;;;;23.01;43.50;101509.28;4988677;28;20050;-61
2023/06/14 07:51:22;;;;;;;3.72;2.67;;;;;;;23.14;43.16;101507.41;4989816;28;20030;-62
2023/06/14 07:53:48;;;;;;;3.70;2.45;;;;;;;23.25;42.22;101512.59;4989708;28;20022;-63
2023/06/14 07:56:14;;;;;;;5.07;2.70;;;;;;;23.33;41.81;101515.16;4990268;28;20114;-63
2023/06/14 07:58:39;;;;;;;4.22;2.53;;;;;;;23.33;41.28;101507.22;4990278;28;20113;-63
2023/06/14 08:01:06;;;;;;;4.53;2.65;;;;;;;23.44;41.74;101513.28;4989978;28;20471;-63
2023/06/14 08:03:32;;;;;;;2.65;2.20;;;;;;;23.56;41.40;101517.56;4989855;28;20077;-63
2023/06/14 08:05:57;;;;;;;4.32;2.20;;;;;;;23.70;40.88;101513.88;4990195;28;20022;-63
2023/06/14 08:08:22;;;;;;;4.35;2.65;;;;;;;23.87;41.38;101521.59;4989808;28;20104;-62
2023/06/14 08:10:48;;;;;;;4.85;2.83;;;;;;;24.05;40.25;101527.53;4989837;28;20204;-62
2023/06/14 08:13:13;;;;;;;3.92;2.30;;;;;;;24.19;40.07;101522.94;4989711;28;20500;-63
2023/06/14 08:15:39;;;;;;;4.18;2.40;;;;;;;24.36;40.83;101524.44;4989890;28;20023;-63
2023/06/14 08:18:04;;;;;;;2.72;2.38;;;;;;;24.50;39.45;101515.44;4989768;28;20027;-63
2023/06/14 08:20:31;;;;;;;2.55;1.90;;;;;;;24.59;38.46;101518.78;4989960;28;20161;-63
2023/06/14 08:22:57;;;;;;;5.65;2.50;;;;;;;24.66;38.92;101516.06;4989781;28;20023;-63
2023/06/14 08:25:22;;;;;;;3.28;2.20;;;;;;;24.73;37.27;101516.81;4989826;28;20042;-60
2023/06/14 08:27:48;;;;;;;4.43;2.58;;;;;;;24.77;37.65;101515.88;4989253;28;20026;-63
2023/06/14 08:30:13;;;;;;;3.88;2.25;;;;;;;24.85;38.32;101510.41;4990148;28;20018;-63
2023/06/14 08:32:39;;;;;;;3.55;2.40;;;;;;;25.04;39.33;101514.53;4989730;28;20034;-63
2023/06/14 08:35:05;;;;;;;2.83;2.22;;;;;;;25.17;37.25;101512.53;4953738;28;1041943;-63
2023/06/14 08:37:30;;;;;;;5.68;2.55;;;;;;;25.33;36.32;101517.53;4989620;28;20038;-62
2023/06/14 08:39:56;;;;;;;1.90;1.48;;;;;;;25.38;35.97;101514.78;4990639;28;20105;-63
2023/06/14 08:42:23;;;;;;;2.95;2.15;;;;;;;25.45;35.18;101508.47;4990358;28;20022;-63
2023/06/14 08:44:49;;;;;;;2.72;1.60;;;;;;;25.58;35.00;101516.16;4990039;28;20033;-63
2023/06/14 08:47:17;;;;;;;2.53;1.90;;;;;;;25.57;34.12;101517.06;4990465;28;20014;-64
2023/06/14 08:49:47;;;;;;;2.92;1.70;;;;;;;25.62;34.15;101520.50;4990671;28;20070;-63
2023/06/14 08:52:13;;;;;;;3.38;1.40;;;;;;;25.72;33.78;101507.94;4990190;28;20054;-62
2023/06/14 08:54:43;;;;;;;2.30;1.70;;;;;;;25.78;33.94;101513.09;4990183;28;20030;-63
2023/06/14 08:57:12;;;;;;;3.88;2.13;;;;;;;25.93;34.30;101522.53;4990498;28;20010;-63
2023/06/14 08:59:49;;;;;;;2.83;1.70;;;;;;;26.00;34.27;101518.81;4990434;28;20030;-63
2023/06/14 09:02:17;;;;;;;4.22;2.10;;;;;;;25.97;33.94;101507.41;4990300;28;20490;-63
2023/06/14 09:04:44;;;;;;;3.35;1.73;;;;;;;25.94;33.60;101505.69;4988949;28;20026;-63
2023/06/14 09:07:09;;;;;;;3.22;1.42;;;;;;;26.08;32.51;101509.81;4989635;28;20022;-63
2023/06/14 09:09:40;;;;;;;2.88;1.55;;;;;;;26.20;32.56;101521.94;4990043;28;20410;-62
2023/06/14 09:12:10;;;;;;;3.38;1.50;;;;;;;26.28;31.89;101514.66;4978449;28;20022;-63
2023/06/14 09:14:38;;;;;;;2.88;1.80;;;;;;;26.41;32.11;101517.06;4989583;28;20054;-63
2023/06/14 09:17:03;;;;;;;2.53;1.60;;;;;;;26.44;32.26;101520.53;4989661;28;20045;-63
2023/06/14 09:19:29;;;;;;;1.23;1.13;;;;;;;26.37;31.29;101518.91;4989422;28;20026;-63
2023/06/14 09:21:55;;;;;;;2.92;1.50;;;;;;;26.38;31.35;101513.56;4989968;28;20486;-63
2023/06/14 09:24:20;;;;;;;2.38;1.50;;;;;;;26.41;31.17;101512.59;4989932;28;20022;-63
2023/06/14 09:26:51;;;;;;;2.25;0.85;;;;;;;26.47;29.95;101516.91;4989056;28;20026;-63
2023/06/14 09:29:16;;;;;;;2.28;1.40;;;;;;;26.41;28.49;101517.06;4989474;28;20386;-63
2023/06/14 09:31:42;;;;;;;2.20;0.95;;;;;;;26.55;29.94;101525.53;4989610;28;20026;-62
2023/06/14 09:34:09;;;;;;;3.50;1.10;;;;;;;26.62;29.23;101527.13;4988913;28;20038;-62
2023/06/14 09:36:34;;;;;;;2.55;1.10;;;;;;;26.49;29.40;101520.41;4989134;28;20132;-63
2023/06/14 09:39:05;;;;;;;2.15;1.10;;;;;;;26.55;29.75;101519.38;4988954;28;20031;-63
2023/06/14 09:41:42;;;;;;;3.75;1.00;;;;;;;26.59;28.07;101519.25;4988938;28;20034;-63
2023/06/14 09:44:09;;;;;;;5.32;1.08;;;;;;;26.68;28.55;101530.56;4988796;28;20066;-63
2023/06/14 09:46:36;;;;;;;3.55;1.08;;;;;;;26.82;29.35;101528.41;4988974;28;20447;-62
2023/06/14 09:49:03;;;;;;;1.00;0.85;;;;;;;26.91;29.36;101523.78;4988367;28;20351;-62
2023/06/14 09:51:32;;;;;;;1.77;0.80;;;;;;;27.03;29.10;101526.13;4988609;28;20022;-62
2023/06/14 09:54:06;;;;;;;2.28;0.90;;;;;;;27.17;29.49;101528.44;4988602;28;20022;-61
2023/06/14 09:56:36;;;;;;;3.13;1.30;;;;;;;27.23;29.21;101538.03;4988790;28;20022;-62
2023/06/14 09:59:05;;;;;;;2.38;1.20;;;;;;;27.34;28.49;101535.94;4988955;28;20425;-62
2023/06/14 10:01:31;;;;;;;1.75;1.10;;;;;;;27.17;28.26;101538.19;4988672;28;20030;-63
2023/06/14 10:04:05;;;;;;;1.33;1.00;;;;;;;27.11;28.29;101536.56;4989064;28;20101;-62
2023/06/14 10:06:31;;;;;;;3.80;1.17;;;;;;;27.11;28.40;101522.41;4988701;28;20026;-62
2023/06/14 10:08:59;;;;;;;1.05;0.85;;;;;;;27.06;28.51;101531.38;4988851;28;20386;-62
2023/06/14 10:11:28;;;;;;;2.80;1.30;;;;;;;27.13;27.93;101531.22;4988084;28;20098;-63
2023/06/14 10:13:56;;;;;;;2.63;1.02;;;;;;;27.04;28.50;101516.41;4988883;28;20117;-62
2023/06/14 10:16:32;;;;;;;1.75;1.00;;;;;;;27.14;28.26;101522.31;4988064;28;20116;-62
2023/06/14 10:19:11;;;;;;;1.50;1.23;;;;;;;27.29;30.59;101521.03;4988581;28;20386;-62
2023/06/14 10:21:57;;;;;;;2.10;1.27;;;;;;;27.34;30.64;101519.13;4988655;28;20061;-63
2023/06/14 10:24:30;;;;;;;2.08;1.17;;;;;;;27.47;30.40;101514.28;4988430;28;20034;-62
2023/06/14 10:26:58;;;;;;;3.15;1.30;;;;;;;27.54;28.78;101515.88;4988906;28;20026;-63
2023/06/14 10:29:23;;;;;;;4.50;1.52;;;;;;;27.44;27.54;101520.59;4987803;28;20022;-62
2023/06/14 10:31:51;;;;;;;1.58;1.35;;;;;;;27.39;27.46;101513.66;4988679;28;20036;-62
2023/06/14 10:34:27;;;;;;;1.27;1.17;;;;;;;27.40;27.36;101512.75;4988872;28;20415;-62
2023/06/14 10:37:06;;;;;;;2.10;1.50;;;;;;;27.48;28.49;101510.72;4988651;28;20402;-62
2023/06/14 10:39:35;;;;;;;1.88;1.52;;;;;;;27.49;28.63;101523.09;4988609;28;20084;-62
2023/06/14 10:42:04;;;;;;;3.72;1.27;;;;;;;27.37;27.99;101519.03;4988529;28;20497;-62
2023/06/14 10:44:29;;;;;;;1.63;1.30;;;;;;;27.45;28.78;101521.47;4988166;28;20106;-63
2023/06/14 10:46:55;;;;;;;1.75;1.05;;;;;;;27.54;27.87;101525.66;4988550;28;20126;-63
2023/06/14 10:49:44;;;;;;;3.05;1.58;;;;;;;27.58;27.50;101520.19;4988297;28;20057;-63
2023/06/14 10:52:16;;;;;;;2.67;1.50;;;;;;;27.66;30.19;101524.41;4988400;28;20022;-63
2023/06/14 10:55:18;;;;;;;1.40;1.30;;;;;;;27.67;29.98;101521.69;4988311;28;20122;-63
2023/06/14 10:57:47;;;;;;;2.08;1.30;;;;;;;27.60;26.44;101527.25;4988032;28;20038;-63
2023/06/14 11:00:16;;;;;;;2.85;1.30;;;;;;;27.60;27.20;101519.25;4988593;28;20434;-62
2023/06/14 11:03:04;;;;;;;2.92;1.17;;;;;;;27.64;27.99;101526.25;4986910;28;20034;-63
2023/06/14 11:05:30;;;;;;;1.40;1.30;;;;;;;27.79;30.57;101520.47;4988318;28;20021;-62
2023/06/14 11:08:04;;;;;;;2.58;1.23;;;;;;;27.88;30.16;101523.81;4987959;28;20034;-62
2023/06/14 11:10:40;;;;;;;1.67;1.30;;;;;;;27.98;28.95;101519.06;4988278;28;20030;-62
2023/06/14 11:13:07;;;;;;;1.55;1.42;;;;;;;28.00;29.57;101515.44;4987441;28;20133;-62
2023/06/14 11:15:33;;;;;;;2.10;1.10;;;;;;;28.13;29.77;101512.38;4988319;28;20356;-63
2023/06/14 11:18:06;;;;;;;1.45;1.35;;;;;;;28.13;28.44;101515.03;4987865;28;20165;-62
2023/06/14 11:20:33;;;;;;;1.20;1.08;;;;;;;28.18;30.49;101507.78;4988230;28;20423;-62
2023/06/14 11:22:59;;;;;;;2.72;1.25;;;;;;;28.24;30.08;101512.03;4988372;28;20109;-62